Home   Weather   France   Carcassonne   Past weeks
Flag for France

Past Weather in Carcassonne, Occitanie, France — Yesterday and Last 2 Weeks

Currently: 48 °F. Clear. (Weather station: Perpignan Airport, France). See more current weather

Past Weather in Carcassonne — Graph

°F

Carcassonne Temperature Yesterday

Maximum temperature yesterday: 64 °F (at 12:00 pm)
Minimum temperature yesterday: 46 °F (at 7:30 am)
Average temperature yesterday: 57 °F

High & Low Weather Summary for the Past Weeks

 TemperatureHumidityPressure
High73 °F (Apr 5, 3:00 pm)94% (Apr 11, 3:30 am)30.33 "Hg (Apr 11, 3:30 am)
Low36 °F (Apr 8, 3:00 am)14% (Apr 13, 3:00 pm)29.86 "Hg (Apr 6, 1:00 pm)
Average54 °F46%30.09 "Hg
* Reported Apr 5 12:00 am — Apr 20 12:00 am, Carcassonne. Weather by CustomWeather, © 2021

Note: Actual official high and low records may vary slightly from our data, if they occured in-between our weather recording intervals... More about our weather records

Carcassonne Weather History for the Previous 24 Hours

Scroll right to see more
 ConditionsComfort  
Time TempWeatherWind HumidityBarometerVisibility
12:00 am
Tue, Apr 20
50 °FClear.10 mph58%30.01 "Hg10 mi
11:30 pm
Mon, Apr 19
54 °FClear.10 mph51%30.01 "Hg10 mi
11:00 pm50 °FClear.8 mph54%30.01 "Hg10 mi
10:30 pm54 °FPassing clouds.6 mph47%30.01 "HgN/A
10:00 pm54 °FClear.3 mph51%30.01 "Hg10 mi
9:30 pm55 °FPassing clouds.3 mph47%30.01 "HgN/A
9:00 pm57 °FClear.1 mph44%30.01 "Hg10 mi
8:30 pm59 °FSunny.3 mph39%29.98 "Hg10 mi
8:00 pm61 °FPassing clouds.7 mph36%29.98 "HgN/A
7:30 pm63 °FPassing clouds.8 mph32%29.98 "HgN/A
7:00 pm64 °FPassing clouds.8 mph26%29.98 "HgN/A
6:30 pm64 °FPassing clouds.8 mph26%29.98 "HgN/A
6:00 pm64 °FPassing clouds.9 mph28%29.98 "HgN/A
5:30 pm64 °FPassing clouds.12 mph30%30.01 "HgN/A
5:00 pm64 °FPassing clouds.12 mph28%30.01 "HgN/A
4:30 pm63 °FPassing clouds.10 mph30%30.01 "HgN/A
4:00 pm64 °FPassing clouds.10 mph30%30.01 "HgN/A
3:30 pm64 °FPassing clouds.10 mph32%30.04 "HgN/A
3:00 pm64 °FPassing clouds.12 mph30%30.04 "HgN/A
2:30 pm64 °FPassing clouds.13 mph30%30.04 "HgN/A
2:00 pm64 °FPassing clouds.13 mph28%30.04 "HgN/A
1:30 pm64 °FPassing clouds.13 mph30%30.04 "HgN/A
1:00 pm64 °FSunny.15 mph32%30.04 "Hg10 mi
12:30 pm64 °FPassing clouds.8 mph32%30.04 "HgN/A
12:00 pm64 °FPassing clouds.5 mph30%30.04 "HgN/A
11:30 am63 °FPassing clouds.3 mph32%30.07 "HgN/A
11:00 am63 °FPassing clouds.7 mph32%30.07 "HgN/A
10:30 am61 °FPassing clouds.7 mph34%30.07 "HgN/A
10:00 am59 °FPassing clouds.7 mph36%30.07 "HgN/A
9:30 am57 °FPassing clouds.5 mph41%30.07 "HgN/A
9:00 am57 °FScattered clouds.5 mph41%30.09 "HgN/A
8:30 am55 °FPartly sunny.6 mph44%30.09 "HgN/A
8:00 am48 °FScattered clouds.5 mph58%30.09 "HgN/A
7:30 am46 °FPassing clouds.3 mph57%30.07 "HgN/A
7:00 am48 °FPassing clouds.5 mph54%30.07 "HgN/A
6:30 am52 °FPassing clouds.5 mph47%30.07 "HgN/A
6:00 am50 °FOvercast.5 mph50%30.07 "HgN/A
5:30 am48 °FPassing clouds.2 mph54%30.07 "HgN/A
5:00 am50 °FPassing clouds.3 mph50%30.07 "HgN/A
4:30 am52 °FPassing clouds.6 mph47%30.07 "HgN/A
4:00 am50 °FPassing clouds.7 mph50%30.07 "HgN/A
3:30 am50 °FPartly cloudy.6 mph50%30.09 "HgN/A
3:00 am50 °FClear.7 mph50%30.09 "Hg10 mi
2:30 am52 °FPassing clouds.8 mph47%30.09 "HgN/A
2:00 am54 °FClear.10 mph41%30.09 "Hg10 mi
1:30 am54 °FClear.13 mph41%30.09 "Hg10 mi
1:00 am54 °FPassing clouds.13 mph44%30.09 "HgN/A
Weather by CustomWeather, © 2021

See weather overview